New Orleans, Louisiana
Traffic Map
Current Weather Conditions
New Orleans, Louisiana
Scattered Clouds
Scattered Clouds
27°
Feels Like: 30°
Wind Chill: 27° Ceiling: Unl
Heat Index: 30° Visibility: 10mi
Dew Point: 23° Wind: 5mph
Humidity: 79% Direction: 150° (SSE)
Pressure: 30.03in Gusts: 0mph
Raw Report DataKVSH 020955Z AUTO 15004KT 10SM SCT021 27/23 A3003 RMK AO1
Traffic Incident Summary
Active as of:
Severity:
Category:
InformationThere was an issue retrieving the traffic information for this location. Please try a different location or try again shortly.
Advertisements
Track Severe Weather on mobile